sensor_id;sensor_type;location;lat;lon;timestamp;pressure;altitude;pressure_sealevel;temperature
47484;BMP280;54076;50.322;18.650;2023-07-13T00:04:46;161420.03;;;15.18
47484;BMP280;54076;50.322;18.650;2023-07-13T00:09:47;161543.91;;;15.26
47484;BMP280;54076;50.322;18.650;2023-07-13T00:14:48;161597.69;;;15.30
47484;BMP280;54076;50.322;18.650;2023-07-13T00:19:50;161618.02;;;15.33
47484;BMP280;54076;50.322;18.650;2023-07-13T00:24:53;161631.72;;;15.33
47484;BMP280;54076;50.322;18.650;2023-07-13T00:29:57;161692.02;;;15.38
47484;BMP280;54076;50.322;18.650;2023-07-13T00:34:58;161471.53;;;15.23
47484;BMP280;54076;50.322;18.650;2023-07-13T00:40:03;161612.53;;;15.33
47484;BMP280;54076;50.322;18.650;2023-07-13T00:50:15;161651.78;;;15.38
47484;BMP280;54076;50.322;18.650;2023-07-13T00:55:17;161484.95;;;15.25
47484;BMP280;54076;50.322;18.650;2023-07-13T01:00:20;161544.28;;;15.28
47484;BMP280;54076;50.322;18.650;2023-07-13T01:05:22;161560.91;;;15.26
47484;BMP280;54076;50.322;18.650;2023-07-13T01:10:25;161629.03;;;15.29
47484;BMP280;54076;50.322;18.650;2023-07-13T01:15:44;161485.03;;;15.18
47484;BMP280;54076;50.322;18.650;2023-07-13T01:20:58;161423.09;;;15.11
47484;BMP280;54076;50.322;18.650;2023-07-13T01:26:00;161250.50;;;14.99
47484;BMP280;54076;50.322;18.650;2023-07-13T01:31:01;160605.22;;;14.60
47484;BMP280;54076;50.322;18.650;2023-07-13T01:36:02;160781.28;;;14.77
47484;BMP280;54076;50.322;18.650;2023-07-13T01:41:03;160986.20;;;14.91
47484;BMP280;54076;50.322;18.650;2023-07-13T01:46:04;161029.97;;;14.94
47484;BMP280;54076;50.322;18.650;2023-07-13T01:51:05;161056.95;;;14.95
47484;BMP280;54076;50.322;18.650;2023-07-13T01:56:06;161126.70;;;14.98
47484;BMP280;54076;50.322;18.650;2023-07-13T02:01:07;161057.16;;;14.91
47484;BMP280;54076;50.322;18.650;2023-07-13T02:06:08;161091.66;;;14.93
47484;BMP280;54076;50.322;18.650;2023-07-13T02:11:09;160928.20;;;14.80
47484;BMP280;54076;50.322;18.650;2023-07-13T02:16:10;160813.92;;;14.74
47484;BMP280;54076;50.322;18.650;2023-07-13T02:21:10;160783.50;;;14.71
47484;BMP280;54076;50.322;18.650;2023-07-13T02:26:11;160954.17;;;14.80
47484;BMP280;54076;50.322;18.650;2023-07-13T02:31:15;161009.53;;;14.82
47484;BMP280;54076;50.322;18.650;2023-07-13T02:36:16;160855.72;;;14.70
47484;BMP280;54076;50.322;18.650;2023-07-13T02:41:17;160915.16;;;14.72
47484;BMP280;54076;50.322;18.650;2023-07-13T02:46:18;160632.09;;;14.52
47484;BMP280;54076;50.322;18.650;2023-07-13T02:51:20;160734.84;;;14.57
47484;BMP280;54076;50.322;18.650;2023-07-13T02:56:25;160739.16;;;14.55
47484;BMP280;54076;50.322;18.650;2023-07-13T03:01:26;160514.91;;;14.41
47484;BMP280;54076;50.322;18.650;2023-07-13T03:06:27;160591.91;;;14.42
47484;BMP280;54076;50.322;18.650;2023-07-13T03:11:31;160595.72;;;14.40
47484;BMP280;54076;50.322;18.650;2023-07-13T03:16:32;160589.80;;;14.36
47484;BMP280;54076;50.322;18.650;2023-07-13T03:21:33;160946.72;;;14.54
47484;BMP280;54076;50.322;18.650;2023-07-13T03:26:34;161007.72;;;14.55
47484;BMP280;54076;50.322;18.650;2023-07-13T03:31:36;160859.80;;;14.44
47484;BMP280;54076;50.322;18.650;2023-07-13T03:36:37;161173.05;;;14.60
47484;BMP280;54076;50.322;18.650;2023-07-13T03:41:38;161286.06;;;14.66
47484;BMP280;54076;50.322;18.650;2023-07-13T03:46:39;161238.78;;;14.59
47484;BMP280;54076;50.322;18.650;2023-07-13T03:51:40;161468.97;;;14.70
47484;BMP280;54076;50.322;18.650;2023-07-13T03:56:41;161486.73;;;14.68
47484;BMP280;54076;50.322;18.650;2023-07-13T04:01:43;161663.16;;;14.80
47484;BMP280;54076;50.322;18.650;2023-07-13T04:06:44;161802.55;;;14.88
47484;BMP280;54076;50.322;18.650;2023-07-13T04:11:45;162003.72;;;14.99
47484;BMP280;54076;50.322;18.650;2023-07-13T04:16:46;162152.50;;;15.09
47484;BMP280;54076;50.322;18.650;2023-07-13T04:21:47;162438.97;;;15.26
47484;BMP280;54076;50.322;18.650;2023-07-13T04:26:48;162338.14;;;15.17
47484;BMP280;54076;50.322;18.650;2023-07-13T04:31:50;162268.30;;;15.11
47484;BMP280;54076;50.322;18.650;2023-07-13T04:36:51;162856.52;;;15.47
47484;BMP280;54076;50.322;18.650;2023-07-13T04:41:53;162573.19;;;15.26
47484;BMP280;54076;50.322;18.650;2023-07-13T04:46:53;162812.33;;;15.43
47484;BMP280;54076;50.322;18.650;2023-07-13T04:51:54;163082.16;;;15.59
47484;BMP280;54076;50.322;18.650;2023-07-13T04:56:55;163057.70;;;15.56
47484;BMP280;54076;50.322;18.650;2023-07-13T05:01:56;163290.83;;;15.66
47484;BMP280;54076;50.322;18.650;2023-07-13T05:06:59;163612.97;;;15.85
47484;BMP280;54076;50.322;18.650;2023-07-13T05:12:00;163775.92;;;15.92
47484;BMP280;54076;50.322;18.650;2023-07-13T05:17:01;164172.34;;;16.18
47484;BMP280;54076;50.322;18.650;2023-07-13T05:22:02;164392.63;;;16.34
47484;BMP280;54076;50.322;18.650;2023-07-13T05:27:04;164543.53;;;16.47
47484;BMP280;54076;50.322;18.650;2023-07-13T05:32:06;164737.44;;;16.60
47484;BMP280;54076;50.322;18.650;2023-07-13T05:37:07;165118.13;;;16.84
47484;BMP280;54076;50.322;18.650;2023-07-13T05:42:08;165111.88;;;16.88
47484;BMP280;54076;50.322;18.650;2023-07-13T05:47:09;165247.72;;;16.98
47484;BMP280;54076;50.322;18.650;2023-07-13T05:52:10;165281.78;;;17.01
47484;BMP280;54076;50.322;18.650;2023-07-13T05:57:11;165814.70;;;17.39
47484;BMP280;54076;50.322;18.650;2023-07-13T06:02:12;166064.94;;;17.58
47484;BMP280;54076;50.322;18.650;2023-07-13T06:07:13;165911.38;;;17.51
47484;BMP280;54076;50.322;18.650;2023-07-13T06:12:13;166437.84;;;17.85
47484;BMP280;54076;50.322;18.650;2023-07-13T06:17:14;166762.67;;;18.12
47484;BMP280;54076;50.322;18.650;2023-07-13T06:22:15;166573.61;;;18.03
47484;BMP280;54076;50.322;18.650;2023-07-13T06:27:16;166532.53;;;18.04
47484;BMP280;54076;50.322;18.650;2023-07-13T06:32:17;166683.84;;;18.21
47484;BMP280;54076;50.322;18.650;2023-07-13T06:37:18;166752.09;;;18.31
47484;BMP280;54076;50.322;18.650;2023-07-13T06:42:19;166670.34;;;18.28
47484;BMP280;54076;50.322;18.650;2023-07-13T06:47:20;166417.03;;;18.11
47484;BMP280;54076;50.322;18.650;2023-07-13T06:52:21;166370.23;;;18.10
47484;BMP280;54076;50.322;18.650;2023-07-13T06:57:22;166358.02;;;18.07
47484;BMP280;54076;50.322;18.650;2023-07-13T07:02:23;166067.59;;;17.90
47484;BMP280;54076;50.322;18.650;2023-07-13T07:07:24;165844.83;;;17.80
47484;BMP280;54076;50.322;18.650;2023-07-13T07:12:25;165465.13;;;17.52
47484;BMP280;54076;50.322;18.650;2023-07-13T07:17:26;165542.66;;;17.58
47484;BMP280;54076;50.322;18.650;2023-07-13T07:22:27;165270.95;;;17.39
47484;BMP280;54076;50.322;18.650;2023-07-13T07:27:28;165260.59;;;17.39
47484;BMP280;54076;50.322;18.650;2023-07-13T07:32:30;165340.72;;;17.39
47484;BMP280;54076;50.322;18.650;2023-07-13T07:37:31;164914.05;;;17.09
47484;BMP280;54076;50.322;18.650;2023-07-13T07:42:32;164775.91;;;17.05
47484;BMP280;54076;50.322;18.650;2023-07-13T07:47:33;165035.02;;;17.17
47484;BMP280;54076;50.322;18.650;2023-07-13T07:52:34;165324.20;;;17.31
47484;BMP280;54076;50.322;18.650;2023-07-13T07:57:35;165451.16;;;17.35
47484;BMP280;54076;50.322;18.650;2023-07-13T08:02:36;165999.53;;;17.62
47484;BMP280;54076;50.322;18.650;2023-07-13T08:07:38;166615.59;;;17.99
47484;BMP280;54076;50.322;18.650;2023-07-13T08:12:40;167008.86;;;18.33
47484;BMP280;54076;50.322;18.650;2023-07-13T08:17:41;167368.27;;;18.62
47484;BMP280;54076;50.322;18.650;2023-07-13T08:22:42;167489.02;;;18.74
47484;BMP280;54076;50.322;18.650;2023-07-13T08:27:43;167505.67;;;18.77
47484;BMP280;54076;50.322;18.650;2023-07-13T08:32:44;167593.97;;;18.94
47484;BMP280;54076;50.322;18.650;2023-07-13T08:37:45;166991.48;;;18.61
47484;BMP280;54076;50.322;18.650;2023-07-13T08:42:53;166248.55;;;18.08
47484;BMP280;54076;50.322;18.650;2023-07-13T08:48:07;165496.64;;;17.52
47484;BMP280;54076;50.322;18.650;2023-07-13T08:53:12;165481.72;;;17.53
47484;BMP280;54076;50.322;18.650;2023-07-13T08:58:16;164967.36;;;17.21
47484;BMP280;54076;50.322;18.650;2023-07-13T09:03:23;164453.25;;;16.87
47484;BMP280;54076;50.322;18.650;2023-07-13T09:19:30;163071.38;;;16.13
47484;BMP280;54076;50.322;18.650;2023-07-13T09:25:50;162464.88;;;15.86
47484;BMP280;54076;50.322;18.650;2023-07-13T09:30:37;160780.45;;;14.95
47484;BMP280;54076;50.322;18.650;2023-07-13T09:35:41;159625.42;;;14.23
47484;BMP280;54076;50.322;18.650;2023-07-13T09:46:21;158831.69;;;13.72
47484;BMP280;54076;50.322;18.650;2023-07-13T09:51:22;158785.91;;;13.62
47484;BMP280;54076;50.322;18.650;2023-07-13T09:56:28;158055.34;;;13.17
47484;BMP280;54076;50.322;18.650;2023-07-13T10:01:37;158001.89;;;13.08
47484;BMP280;54076;50.322;18.650;2023-07-13T10:06:40;158039.08;;;13.07
47484;BMP280;54076;50.322;18.650;2023-07-13T10:11:44;157893.94;;;12.97
47484;BMP280;54076;50.322;18.650;2023-07-13T10:16:46;158410.36;;;13.20
47484;BMP280;54076;50.322;18.650;2023-07-13T10:21:54;158684.42;;;13.33
47484;BMP280;54076;50.322;18.650;2023-07-13T10:27:18;158789.11;;;13.35
47484;BMP280;54076;50.322;18.650;2023-07-13T10:32:22;159034.67;;;13.42
47484;BMP280;54076;50.322;18.650;2023-07-13T10:37:29;159338.75;;;13.53
47484;BMP280;54076;50.322;18.650;2023-07-13T10:42:39;159582.95;;;13.57
47484;BMP280;54076;50.322;18.650;2023-07-13T10:47:44;159917.88;;;13.70
47484;BMP280;54076;50.322;18.650;2023-07-13T10:52:51;160189.84;;;13.83
47484;BMP280;54076;50.322;18.650;2023-07-13T10:57:52;160583.53;;;14.08
47484;BMP280;54076;50.322;18.650;2023-07-13T11:02:59;160932.06;;;14.29
47484;BMP280;54076;50.322;18.650;2023-07-13T11:19:27;162087.09;;;14.89
47484;BMP280;54076;50.322;18.650;2023-07-13T11:35:30;162438.75;;;15.13
47484;BMP280;54076;50.322;18.650;2023-07-13T11:40:32;162866.13;;;15.40
47484;BMP280;54076;50.322;18.650;2023-07-13T11:45:33;163016.72;;;15.50
47484;BMP280;54076;50.322;18.650;2023-07-13T11:50:34;162970.17;;;15.46
47484;BMP280;54076;50.322;18.650;2023-07-13T11:55:37;163114.45;;;15.51
47484;BMP280;54076;50.322;18.650;2023-07-13T12:00:38;163517.16;;;15.73
47484;BMP280;54076;50.322;18.650;2023-07-13T12:06:24;163478.42;;;15.76
47484;BMP280;54076;50.322;18.650;2023-07-13T12:11:27;163360.92;;;15.77
47484;BMP280;54076;50.322;18.650;2023-07-13T12:16:31;163211.03;;;15.70
47484;BMP280;54076;50.322;18.650;2023-07-13T12:21:41;163452.19;;;15.86
47484;BMP280;54076;50.322;18.650;2023-07-13T12:26:42;163461.05;;;15.70
47484;BMP280;54076;50.322;18.650;2023-07-13T12:31:47;164986.75;;;16.62
47484;BMP280;54076;50.322;18.650;2023-07-13T12:37:01;164910.50;;;16.69
47484;BMP280;54076;50.322;18.650;2023-07-13T12:42:24;165001.22;;;16.71
47484;BMP280;54076;50.322;18.650;2023-07-13T12:47:29;164740.09;;;16.73
47484;BMP280;54076;50.322;18.650;2023-07-13T12:52:34;164357.83;;;16.48
47484;BMP280;54076;50.322;18.650;2023-07-13T12:57:50;163979.38;;;16.25
47484;BMP280;54076;50.322;18.650;2023-07-13T13:02:57;164309.28;;;16.40
47484;BMP280;54076;50.322;18.650;2023-07-13T13:07:58;163927.66;;;16.22
47484;BMP280;54076;50.322;18.650;2023-07-13T13:12:59;164029.47;;;16.29
47484;BMP280;54076;50.322;18.650;2023-07-13T13:18:00;164173.17;;;16.41
47484;BMP280;54076;50.322;18.650;2023-07-13T13:23:01;163586.00;;;16.20
47484;BMP280;54076;50.322;18.650;2023-07-13T13:28:02;163730.13;;;16.24
47484;BMP280;54076;50.322;18.650;2023-07-13T13:33:05;163531.19;;;16.19
47484;BMP280;54076;50.322;18.650;2023-07-13T13:38:14;164424.09;;;16.51
47484;BMP280;54076;50.322;18.650;2023-07-13T13:43:23;165363.36;;;17.09
47484;BMP280;54076;50.322;18.650;2023-07-13T13:48:32;165907.92;;;17.52
47484;BMP280;54076;50.322;18.650;2023-07-13T13:53:33;165413.67;;;17.33
47484;BMP280;54076;50.322;18.650;2023-07-13T13:58:34;165226.80;;;17.36
47484;BMP280;54076;50.322;18.650;2023-07-13T14:03:35;164789.69;;;17.10
47484;BMP280;54076;50.322;18.650;2023-07-13T14:08:36;165360.83;;;17.29
47484;BMP280;54076;50.322;18.650;2023-07-13T14:13:42;165388.28;;;17.38
47484;BMP280;54076;50.322;18.650;2023-07-13T14:18:45;165634.03;;;17.60
47484;BMP280;54076;50.322;18.650;2023-07-13T14:23:47;165448.72;;;17.44
47484;BMP280;54076;50.322;18.650;2023-07-13T14:28:52;166349.80;;;17.91
47484;BMP280;54076;50.322;18.650;2023-07-13T14:33:53;167374.22;;;18.84
47484;BMP280;54076;50.322;18.650;2023-07-13T14:38:56;167156.34;;;18.80
47484;BMP280;54076;50.322;18.650;2023-07-13T14:43:57;166959.34;;;18.62
47484;BMP280;54076;50.322;18.650;2023-07-13T14:49:05;166716.45;;;18.43
47484;BMP280;54076;50.322;18.650;2023-07-13T14:54:08;166296.41;;;18.21
47484;BMP280;54076;50.322;18.650;2023-07-13T14:59:10;167247.52;;;18.95
47484;BMP280;54076;50.322;18.650;2023-07-13T15:04:13;165479.33;;;17.75
47484;BMP280;54076;50.322;18.650;2023-07-13T15:09:14;167220.92;;;18.77
47484;BMP280;54076;50.322;18.650;2023-07-13T15:14:15;168102.75;;;19.73
47484;BMP280;54076;50.322;18.650;2023-07-13T15:19:19;169321.03;;;20.59
47484;BMP280;54076;50.322;18.650;2023-07-13T15:24:21;169704.16;;;20.95
47484;BMP280;54076;50.322;18.650;2023-07-13T15:29:22;169286.17;;;20.63
47484;BMP280;54076;50.322;18.650;2023-07-13T15:34:25;169030.16;;;20.79
47484;BMP280;54076;50.322;18.650;2023-07-13T15:39:26;170090.38;;;21.27
47484;BMP280;54076;50.322;18.650;2023-07-13T15:44:30;171953.22;;;22.93
47484;BMP280;54076;50.322;18.650;2023-07-13T15:49:31;171950.69;;;22.97
47484;BMP280;54076;50.322;18.650;2023-07-13T15:54:32;171184.98;;;22.36
47484;BMP280;54076;50.322;18.650;2023-07-13T15:59:33;172367.47;;;23.32
47484;BMP280;54076;50.322;18.650;2023-07-13T16:04:34;173565.69;;;24.50
47484;BMP280;54076;50.322;18.650;2023-07-13T16:09:35;174115.33;;;25.06
47484;BMP280;54076;50.322;18.650;2023-07-13T16:14:40;175021.81;;;26.11
47484;BMP280;54076;50.322;18.650;2023-07-13T16:19:41;174318.47;;;25.30
47484;BMP280;54076;50.322;18.650;2023-07-13T16:24:43;173650.13;;;24.63
47484;BMP280;54076;50.322;18.650;2023-07-13T16:29:45;172065.80;;;23.10
47484;BMP280;54076;50.322;18.650;2023-07-13T16:34:46;172490.20;;;23.64
47484;BMP280;54076;50.322;18.650;2023-07-13T16:39:54;171605.72;;;23.02
47484;BMP280;54076;50.322;18.650;2023-07-13T16:44:58;169882.67;;;21.17
47484;BMP280;54076;50.322;18.650;2023-07-13T16:49:59;174497.55;;;25.50
47484;BMP280;54076;50.322;18.650;2023-07-13T16:55:05;174755.09;;;25.82
47484;BMP280;54076;50.322;18.650;2023-07-13T17:00:19;176262.67;;;27.60
47484;BMP280;54076;50.322;18.650;2023-07-13T17:05:24;176010.80;;;27.30
47484;BMP280;54076;50.322;18.650;2023-07-13T17:10:26;176496.75;;;27.89
47484;BMP280;54076;50.322;18.650;2023-07-13T17:15:29;175827.22;;;27.10
47484;BMP280;54076;50.322;18.650;2023-07-13T17:20:35;176100.58;;;27.44
47484;BMP280;54076;50.322;18.650;2023-07-13T17:25:44;175358.09;;;26.58
47484;BMP280;54076;50.322;18.650;2023-07-13T17:30:46;175243.63;;;26.44
47484;BMP280;54076;50.322;18.650;2023-07-13T17:35:47;176253.58;;;27.62
47484;BMP280;54076;50.322;18.650;2023-07-13T17:40:48;175340.80;;;26.57
47484;BMP280;54076;50.322;18.650;2023-07-13T17:45:57;175179.06;;;26.37
47484;BMP280;54076;50.322;18.650;2023-07-13T17:50:58;175696.05;;;26.98
47484;BMP280;54076;50.322;18.650;2023-07-13T17:56:00;174754.83;;;25.87
47484;BMP280;54076;50.322;18.650;2023-07-13T18:01:00;174398.03;;;25.46
47484;BMP280;54076;50.322;18.650;2023-07-13T18:06:03;173889.34;;;24.93
47484;BMP280;54076;50.322;18.650;2023-07-13T18:11:04;173137.81;;;24.13
47484;BMP280;54076;50.322;18.650;2023-07-13T18:16:23;170935.95;;;22.33
47484;BMP280;54076;50.322;18.650;2023-07-13T18:21:28;168955.52;;;20.52
47484;BMP280;54076;50.322;18.650;2023-07-13T18:26:30;168680.08;;;20.39
47484;BMP280;54076;50.322;18.650;2023-07-13T18:31:35;167258.39;;;19.36
47484;BMP280;54076;50.322;18.650;2023-07-13T18:36:37;165419.72;;;18.17
47484;BMP280;54076;50.322;18.650;2023-07-13T18:41:39;164777.09;;;17.74
47484;BMP280;54076;50.322;18.650;2023-07-13T18:46:44;164382.42;;;17.50
47484;BMP280;54076;50.322;18.650;2023-07-13T18:51:44;163614.09;;;17.03
47484;BMP280;54076;50.322;18.650;2023-07-13T18:56:46;163129.91;;;16.76
47484;BMP280;54076;50.322;18.650;2023-07-13T19:01:47;162597.05;;;16.46
47484;BMP280;54076;50.322;18.650;2023-07-13T19:06:48;162289.09;;;16.24
47484;BMP280;54076;50.322;18.650;2023-07-13T19:11:49;162003.31;;;16.02
47484;BMP280;54076;50.322;18.650;2023-07-13T19:16:50;161819.08;;;15.83
47484;BMP280;54076;50.322;18.650;2023-07-13T19:21:53;162039.83;;;15.95
47484;BMP280;54076;50.322;18.650;2023-07-13T19:26:56;162251.16;;;16.08
47484;BMP280;54076;50.322;18.650;2023-07-13T19:31:58;161670.38;;;15.74
47484;BMP280;54076;50.322;18.650;2023-07-13T19:37:04;160911.30;;;15.28
47484;BMP280;54076;50.322;18.650;2023-07-13T19:42:22;160592.48;;;15.07
47484;BMP280;54076;50.322;18.650;2023-07-13T19:47:23;160505.94;;;14.98
47484;BMP280;54076;50.322;18.650;2023-07-13T19:52:26;160542.70;;;14.99
47484;BMP280;54076;50.322;18.650;2023-07-13T19:57:28;160505.25;;;14.94
47484;BMP280;54076;50.322;18.650;2023-07-13T20:02:29;160069.98;;;14.68
47484;BMP280;54076;50.322;18.650;2023-07-13T20:07:30;160580.81;;;14.97
47484;BMP280;54076;50.322;18.650;2023-07-13T20:12:36;160497.25;;;14.92
47484;BMP280;54076;50.322;18.650;2023-07-13T20:17:37;160159.78;;;14.72
47484;BMP280;54076;50.322;18.650;2023-07-13T20:22:41;160235.50;;;14.77
47484;BMP280;54076;50.322;18.650;2023-07-13T20:27:42;160016.45;;;14.62
47484;BMP280;54076;50.322;18.650;2023-07-13T20:32:44;159913.17;;;14.55
47484;BMP280;54076;50.322;18.650;2023-07-13T20:37:47;159594.81;;;14.37
47484;BMP280;54076;50.322;18.650;2023-07-13T20:42:51;159411.19;;;14.26
47484;BMP280;54076;50.322;18.650;2023-07-13T20:47:54;159583.34;;;14.34
47484;BMP280;54076;50.322;18.650;2023-07-13T20:52:59;159931.70;;;14.54
47484;BMP280;54076;50.322;18.650;2023-07-13T20:58:00;159578.92;;;14.34
47484;BMP280;54076;50.322;18.650;2023-07-13T21:03:05;159626.66;;;14.36
47484;BMP280;54076;50.322;18.650;2023-07-13T21:08:11;159783.84;;;14.46
47484;BMP280;54076;50.322;18.650;2023-07-13T21:13:14;159994.56;;;14.57
47484;BMP280;54076;50.322;18.650;2023-07-13T21:18:24;160104.67;;;14.63
47484;BMP280;54076;50.322;18.650;2023-07-13T21:23:29;159734.41;;;14.43
47484;BMP280;54076;50.322;18.650;2023-07-13T21:28:42;159721.59;;;14.41
47484;BMP280;54076;50.322;18.650;2023-07-13T21:33:43;159605.59;;;14.35
47484;BMP280;54076;50.322;18.650;2023-07-13T21:38:44;159445.56;;;14.26
47484;BMP280;54076;50.322;18.650;2023-07-13T21:43:46;159371.77;;;14.23
47484;BMP280;54076;50.322;18.650;2023-07-13T21:48:47;159227.45;;;14.13
47484;BMP280;54076;50.322;18.650;2023-07-13T21:53:49;159205.66;;;14.11
47484;BMP280;54076;50.322;18.650;2023-07-13T21:58:51;158963.00;;;13.99
47484;BMP280;54076;50.322;18.650;2023-07-13T22:03:57;158776.84;;;13.88
47484;BMP280;54076;50.322;18.650;2023-07-13T22:08:58;158739.38;;;13.86
47484;BMP280;54076;50.322;18.650;2023-07-13T22:13:59;158495.11;;;13.73
47484;BMP280;54076;50.322;18.650;2023-07-13T22:19:12;158401.45;;;13.68
47484;BMP280;54076;50.322;18.650;2023-07-13T22:24:17;158438.98;;;13.69
47484;BMP280;54076;50.322;18.650;2023-07-13T22:29:21;158198.28;;;13.55
47484;BMP280;54076;50.322;18.650;2023-07-13T22:34:24;157888.75;;;13.38
47484;BMP280;54076;50.322;18.650;2023-07-13T22:39:31;158182.61;;;13.54
47484;BMP280;54076;50.322;18.650;2023-07-13T22:44:32;158283.08;;;13.59
47484;BMP280;54076;50.322;18.650;2023-07-13T22:49:34;157947.97;;;13.42
47484;BMP280;54076;50.322;18.650;2023-07-13T22:54:36;157597.59;;;13.24
47484;BMP280;54076;50.322;18.650;2023-07-13T22:59:37;157591.28;;;13.23
47484;BMP280;54076;50.322;18.650;2023-07-13T23:04:38;157607.31;;;13.24
47484;BMP280;54076;50.322;18.650;2023-07-13T23:09:39;156876.19;;;12.90
47484;BMP280;54076;50.322;18.650;2023-07-13T23:14:41;156875.53;;;12.88
47484;BMP280;54076;50.322;18.650;2023-07-13T23:19:42;156809.34;;;12.82
47484;BMP280;54076;50.322;18.650;2023-07-13T23:24:43;157061.09;;;12.93
47484;BMP280;54076;50.322;18.650;2023-07-13T23:29:44;157236.16;;;13.01
47484;BMP280;54076;50.322;18.650;2023-07-13T23:34:46;157035.75;;;12.92
47484;BMP280;54076;50.322;18.650;2023-07-13T23:39:47;156863.03;;;12.83
47484;BMP280;54076;50.322;18.650;2023-07-13T23:44:47;156533.34;;;12.66
47484;BMP280;54076;50.322;18.650;2023-07-13T23:49:48;156372.02;;;12.58
47484;BMP280;54076;50.322;18.650;2023-07-13T23:54:49;156974.95;;;12.87
47484;BMP280;54076;50.322;18.650;2023-07-13T23:59:50;156917.47;;;12.84
